Time;durP1;ratioP1;P1;durP2;ratioP2;P2;SDS_P1;SDS_P2;PMS_P1;PMS_P2;Temp;Humidity;BMP_temperature;BMP_pressure;BME280_temperature;BME280_humidity;BME280_pressure;Samples;Min_cycle;Max_cycle;Signal;HPM_P1;HPM_P2
2023/04/30 00:00:46;;;;;;;2.90;2.70;;;12.40;99.90;;;;;;5032286;28;20176;-80
2023/04/30 00:03:12;;;;;;;2.87;2.67;;;12.40;99.90;;;;;;5031658;28;20669;-82
2023/04/30 00:05:38;;;;;;;2.70;2.60;;;12.40;99.90;;;;;;5031764;28;20279;-81
2023/04/30 00:08:04;;;;;;;2.60;2.50;;;12.40;99.90;;;;;;5039174;28;20188;-79
2023/04/30 00:10:30;;;;;;;3.00;2.70;;;12.40;99.90;;;;;;5036134;28;20715;-82
2023/04/30 00:12:56;;;;;;;3.00;2.80;;;12.40;99.90;;;;;;5037111;28;20174;-79
2023/04/30 00:15:21;;;;;;;2.87;2.53;;;12.40;99.90;;;;;;5035470;28;20173;-80
2023/04/30 00:17:47;;;;;;;3.00;2.80;;;12.40;99.90;;;;;;5035216;28;20176;-81
2023/04/30 00:20:14;;;;;;;2.60;2.50;;;12.40;99.90;;;;;;5035136;28;20209;-80
2023/04/30 00:22:39;;;;;;;3.10;2.63;;;12.30;99.90;;;;;;5034906;28;20208;-80
2023/04/30 00:25:05;;;;;;;2.87;2.73;;;12.30;99.90;;;;;;5034980;28;20216;-79
2023/04/30 00:27:31;;;;;;;2.87;2.77;;;12.30;99.90;;;;;;5034548;28;20175;-79
2023/04/30 00:29:57;;;;;;;3.00;2.80;;;12.20;99.90;;;;;;5034851;28;20531;-82
2023/04/30 00:32:23;;;;;;;2.53;2.43;;;12.10;99.90;;;;;;5034945;28;20179;-80
2023/04/30 00:34:49;;;;;;;2.73;2.60;;;12.10;99.90;;;;;;5033126;28;20536;-82
2023/04/30 00:37:15;;;;;;;3.20;2.70;;;12.10;99.90;;;;;;5034440;28;20184;-79
2023/04/30 00:39:40;;;;;;;2.97;2.77;;;12.20;99.90;;;;;;5034347;28;20182;-81
2023/04/30 00:42:07;;;;;;;2.73;2.63;;;12.20;99.90;;;;;;5034948;28;20654;-79
2023/04/30 00:44:32;;;;;;;2.70;2.60;;;12.20;99.90;;;;;;5034554;28;20254;-79
2023/04/30 00:46:58;;;;;;;2.80;2.60;;;12.30;99.90;;;;;;5034769;28;20210;-79
2023/04/30 00:49:24;;;;;;;2.83;2.63;;;12.30;99.90;;;;;;5034577;28;20183;-79
2023/04/30 00:51:51;;;;;;;3.37;3.17;;;12.30;99.90;;;;;;5034353;28;20254;-81
2023/04/30 00:54:18;;;;;;;2.50;2.40;;;12.30;99.90;;;;;;5034312;28;20175;-79
2023/04/30 00:56:45;;;;;;;2.50;2.40;;;12.30;99.90;;;;;;5034459;28;20179;-80
2023/04/30 00:59:12;;;;;;;2.53;2.37;;;12.30;99.90;;;;;;5033225;28;20258;-81
2023/04/30 01:01:38;;;;;;;3.27;2.70;;;12.30;99.90;;;;;;5034646;28;20238;-77
2023/04/30 01:04:04;;;;;;;3.20;2.50;;;12.40;99.90;;;;;;5033394;28;20285;-78
2023/04/30 01:06:30;;;;;;;2.30;2.20;;;12.30;99.90;;;;;;5034198;28;20169;-79
2023/04/30 01:08:58;;;;;;;2.13;2.03;;;12.30;99.90;;;;;;5034046;28;20172;-81
2023/04/30 01:11:43;;;;;;;2.53;2.33;;;12.30;99.90;;;;;;5043621;28;20165;-79
2023/04/30 01:14:39;;;;;;;2.70;2.60;;;12.30;99.90;;;;;;5034768;28;20181;-79
2023/04/30 01:17:21;;;;;;;2.47;2.27;;;12.30;99.90;;;;;;5039137;28;20173;-79
2023/04/30 01:19:46;;;;;;;2.73;2.53;;;12.30;99.90;;;;;;5034142;28;20187;-79
2023/04/30 01:22:44;;;;;;;2.50;2.30;;;12.20;99.90;;;;;;5033951;28;20230;-81
2023/04/30 01:25:39;;;;;;;2.60;2.40;;;12.20;99.90;;;;;;5030573;28;20211;-79
2023/04/30 01:28:12;;;;;;;2.57;2.37;;;12.20;99.90;;;;;;5036841;28;20223;-81
2023/04/30 01:30:39;;;;;;;2.30;2.20;;;12.10;99.90;;;;;;5038766;28;20178;-80
2023/04/30 01:33:05;;;;;;;2.40;2.20;;;12.10;99.90;;;;;;5033850;28;20179;-80
2023/04/30 01:36:14;;;;;;;2.10;2.00;;;12.00;99.90;;;;;;5033365;28;20223;-80
2023/04/30 01:38:49;;;;;;;2.47;2.27;;;12.00;99.90;;;;;;5033515;28;20567;-79
2023/04/30 01:41:27;;;;;;;2.77;2.30;;;11.90;99.90;;;;;;5036023;28;20193;-78
2023/04/30 01:44:31;;;;;;;2.50;2.40;;;11.90;99.90;;;;;;5033244;28;20204;-80
2023/04/30 01:47:15;;;;;;;2.50;2.40;;;11.90;99.90;;;;;;5032864;28;20217;-78
2023/04/30 01:50:13;;;;;;;3.23;2.10;;;11.80;99.90;;;;;;5033317;28;20182;-79
2023/04/30 01:52:49;;;;;;;2.40;2.20;;;11.80;99.90;;;;;;5033125;28;20221;-80
2023/04/30 01:55:22;;;;;;;2.23;2.10;;;11.80;99.90;;;;;;5034068;28;20238;-81
2023/04/30 01:57:58;;;;;;;2.30;2.20;;;11.80;99.90;;;;;;5034028;28;20194;-80
2023/04/30 02:00:29;;;;;;;2.20;2.10;;;11.80;99.90;;;;;;5044901;28;20156;-80
2023/04/30 02:02:56;;;;;;;2.33;2.23;;;11.70;99.90;;;;;;5035891;28;20288;-79
2023/04/30 02:05:24;;;;;;;2.17;2.07;;;11.70;99.90;;;;;;5033766;28;20172;-79
2023/04/30 02:07:51;;;;;;;2.20;2.10;;;11.70;99.90;;;;;;5032934;28;20257;-79
2023/04/30 02:10:21;;;;;;;1.90;1.80;;;11.70;99.90;;;;;;5033295;28;20238;-78
2023/04/30 02:12:47;;;;;;;2.20;2.10;;;11.60;99.90;;;;;;5033093;28;20180;-81
2023/04/30 02:15:13;;;;;;;2.13;2.03;;;11.70;99.90;;;;;;5033117;28;20243;-79
2023/04/30 02:17:41;;;;;;;2.40;2.20;;;11.70;99.90;;;;;;5032371;28;20207;-82
2023/04/30 02:20:08;;;;;;;2.00;1.90;;;11.70;99.90;;;;;;5032941;28;20183;-78
2023/04/30 02:22:34;;;;;;;2.00;2.00;;;11.60;99.90;;;;;;5032920;28;20181;-78
2023/04/30 02:25:00;;;;;;;2.10;2.00;;;11.60;99.90;;;;;;5033167;28;20215;-79
2023/04/30 02:27:26;;;;;;;2.20;2.10;;;11.60;99.90;;;;;;5032702;28;20227;-79
2023/04/30 02:29:52;;;;;;;2.40;2.30;;;11.60;99.90;;;;;;5033203;28;20178;-79
2023/04/30 02:32:18;;;;;;;2.20;2.10;;;11.60;99.90;;;;;;5040475;28;20188;-79
2023/04/30 02:34:44;;;;;;;2.00;1.90;;;11.60;99.90;;;;;;5033093;28;20186;-77
2023/04/30 02:37:10;;;;;;;2.00;1.93;;;11.70;99.90;;;;;;5031447;28;20334;-79
2023/04/30 02:39:40;;;;;;;2.03;1.93;;;11.70;99.90;;;;;;5032628;28;20182;-80
2023/04/30 02:42:06;;;;;;;2.00;1.90;;;11.60;99.90;;;;;;5032644;28;20176;-79
2023/04/30 02:44:33;;;;;;;1.90;1.80;;;11.60;99.90;;;;;;5032694;28;20617;-80
2023/04/30 02:47:01;;;;;;;2.47;2.33;;;11.60;99.90;;;;;;5032506;28;20183;-78
2023/04/30 02:49:27;;;;;;;2.10;2.00;;;11.60;99.90;;;;;;5032986;28;20173;-79
2023/04/30 02:51:53;;;;;;;2.27;2.17;;;11.60;99.90;;;;;;5034239;28;20603;-80
2023/04/30 02:54:19;;;;;;;2.50;2.40;;;11.70;99.90;;;;;;5033009;28;20179;-80
2023/04/30 02:56:48;;;;;;;2.43;2.30;;;11.70;99.90;;;;;;5033104;28;20259;-81
2023/04/30 02:59:14;;;;;;;2.47;2.33;;;11.80;99.90;;;;;;5033562;28;20222;-80
2023/04/30 03:01:40;;;;;;;2.23;2.13;;;11.70;99.90;;;;;;5036716;28;20200;-81
2023/04/30 03:04:05;;;;;;;2.60;2.50;;;11.80;99.90;;;;;;5042842;28;20721;-80
2023/04/30 03:06:32;;;;;;;2.30;2.20;;;11.70;99.90;;;;;;5039010;28;20173;-81
2023/04/30 03:08:59;;;;;;;2.30;2.20;;;11.70;99.90;;;;;;5034064;28;20173;-81
2023/04/30 03:11:25;;;;;;;2.47;2.37;;;11.70;99.90;;;;;;5033038;28;20172;-80
2023/04/30 03:13:50;;;;;;;2.30;2.20;;;11.80;99.90;;;;;;5032543;28;20180;-80
2023/04/30 03:16:17;;;;;;;3.97;2.40;;;11.80;99.90;;;;;;5032480;28;20254;-80
2023/04/30 03:18:44;;;;;;;2.70;2.60;;;11.80;99.90;;;;;;5032199;28;20714;-80
2023/04/30 03:21:10;;;;;;;2.83;2.30;;;11.80;99.90;;;;;;5032498;28;20525;-79
2023/04/30 03:23:36;;;;;;;2.37;2.27;;;11.80;99.90;;;;;;5033057;28;20203;-80
2023/04/30 03:26:02;;;;;;;2.50;2.40;;;11.80;99.90;;;;;;5033207;28;20169;-79
2023/04/30 03:28:28;;;;;;;2.53;2.43;;;11.90;99.90;;;;;;5032288;28;20172;-81
2023/04/30 03:30:53;;;;;;;2.10;2.00;;;11.90;99.90;;;;;;5032609;28;20194;-81
2023/04/30 03:33:19;;;;;;;2.60;2.40;;;11.90;99.90;;;;;;5032507;28;20214;-80
2023/04/30 03:35:45;;;;;;;3.17;2.20;;;12.00;99.90;;;;;;5032505;28;20241;-80
2023/04/30 03:38:11;;;;;;;2.50;2.40;;;11.90;99.90;;;;;;5031969;28;20167;-79
2023/04/30 03:40:37;;;;;;;2.37;2.27;;;11.80;99.90;;;;;;5032198;28;20640;-82
2023/04/30 03:43:02;;;;;;;2.30;2.20;;;11.70;99.90;;;;;;5032637;28;20282;-81
2023/04/30 03:45:28;;;;;;;2.30;2.20;;;11.60;99.90;;;;;;5031546;28;20251;-81
2023/04/30 03:47:54;;;;;;;2.27;2.17;;;11.60;99.90;;;;;;5035923;28;20231;-80
2023/04/30 03:50:20;;;;;;;2.17;2.07;;;11.60;99.90;;;;;;5039324;28;20709;-80
2023/04/30 03:52:46;;;;;;;2.23;2.13;;;11.60;99.90;;;;;;5045639;28;20172;-78
2023/04/30 03:55:12;;;;;;;2.40;2.30;;;11.60;99.90;;;;;;5045275;28;20180;-80
2023/04/30 03:57:40;;;;;;;2.30;2.20;;;11.60;99.90;;;;;;5038858;28;20186;-78
2023/04/30 04:00:08;;;;;;;2.30;2.20;;;11.60;99.90;;;;;;5035087;28;20701;-77
2023/04/30 04:02:35;;;;;;;2.20;2.10;;;11.50;99.90;;;;;;5035971;28;20189;-79
2023/04/30 04:05:02;;;;;;;2.43;2.30;;;11.50;99.90;;;;;;5035721;28;20214;-78
2023/04/30 04:07:28;;;;;;;2.67;2.47;;;11.50;99.90;;;;;;5034233;28;20184;-80
2023/04/30 04:09:54;;;;;;;2.60;2.40;;;11.60;99.90;;;;;;5039335;28;20229;-79
2023/04/30 04:12:20;;;;;;;2.30;2.20;;;11.60;99.90;;;;;;5057383;28;20238;-81
2023/04/30 04:14:46;;;;;;;2.73;2.50;;;11.60;99.90;;;;;;5040352;28;20179;-78
2023/04/30 04:17:12;;;;;;;2.80;2.40;;;11.60;99.90;;;;;;5036359;28;20188;-80
2023/04/30 04:19:39;;;;;;;2.37;2.23;;;11.60;99.90;;;;;;5034322;28;20215;-79
2023/04/30 04:22:05;;;;;;;2.30;2.20;;;11.70;99.90;;;;;;5035673;28;20180;-81
2023/04/30 04:24:31;;;;;;;2.70;2.50;;;11.70;99.90;;;;;;5037651;28;20224;-78
2023/04/30 04:26:57;;;;;;;2.33;2.23;;;11.80;99.90;;;;;;5035752;28;20509;-79
2023/04/30 04:29:23;;;;;;;2.80;2.70;;;11.80;99.90;;;;;;5035344;28;20632;-79
2023/04/30 04:31:49;;;;;;;2.70;2.60;;;11.90;99.90;;;;;;5035695;28;20666;-79
2023/04/30 04:34:16;;;;;;;2.77;2.57;;;11.70;99.90;;;;;;5039551;28;20201;-81
2023/04/30 04:36:42;;;;;;;3.20;3.00;;;11.70;99.90;;;;;;5039361;28;20650;-79
2023/04/30 04:39:07;;;;;;;2.70;2.30;;;11.80;99.90;;;;;;5035580;28;20248;-77
2023/04/30 04:41:37;;;;;;;2.70;2.60;;;11.80;99.90;;;;;;5035568;28;20174;-81
2023/04/30 04:44:03;;;;;;;2.67;2.47;;;11.90;99.90;;;;;;5035258;28;20285;-80
2023/04/30 04:46:30;;;;;;;3.30;2.60;;;11.90;99.90;;;;;;5035173;28;20171;-79
2023/04/30 04:48:57;;;;;;;2.90;2.70;;;12.00;99.90;;;;;;5034719;28;20173;-78
2023/04/30 04:51:23;;;;;;;3.07;2.87;;;12.10;99.90;;;;;;5035055;28;20260;-81
2023/04/30 04:53:49;;;;;;;2.70;2.50;;;12.10;99.90;;;;;;5034830;28;20175;-80
2023/04/30 04:56:15;;;;;;;2.57;2.47;;;12.20;99.90;;;;;;5033639;28;20645;-80
2023/04/30 04:58:41;;;;;;;2.90;2.20;;;12.20;99.90;;;;;;5034888;28;20471;-80
2023/04/30 05:01:08;;;;;;;2.77;2.57;;;12.20;99.90;;;;;;5034898;28;20329;-82
2023/04/30 05:03:36;;;;;;;2.40;2.30;;;12.30;99.90;;;;;;5034351;28;20228;-81
2023/04/30 05:06:02;;;;;;;2.40;2.30;;;12.20;99.90;;;;;;5034780;28;20211;-81
2023/04/30 05:08:28;;;;;;;2.30;2.20;;;12.30;99.90;;;;;;5036148;28;20211;-79
2023/04/30 05:10:54;;;;;;;2.23;2.13;;;12.40;99.90;;;;;;5034875;28;20534;-79
2023/04/30 05:13:20;;;;;;;2.90;2.70;;;12.50;99.90;;;;;;5042020;28;20252;-80
2023/04/30 05:15:46;;;;;;;2.80;2.60;;;12.30;99.90;;;;;;5035744;28;20184;-80
2023/04/30 05:18:12;;;;;;;2.50;2.30;;;12.40;99.90;;;;;;5033353;28;20180;-81
2023/04/30 05:20:38;;;;;;;2.67;2.50;;;12.40;99.90;;;;;;5034668;28;20176;-80
2023/04/30 05:23:03;;;;;;;2.77;2.57;;;12.40;99.90;;;;;;5034647;28;20212;-80
2023/04/30 05:25:29;;;;;;;2.40;2.30;;;12.40;99.90;;;;;;5034374;28;20180;-81
2023/04/30 05:27:55;;;;;;;2.60;2.43;;;12.60;99.90;;;;;;5033739;28;20175;-79
2023/04/30 05:30:21;;;;;;;2.33;2.23;;;12.60;99.90;;;;;;5033677;28;20178;-80
2023/04/30 05:32:50;;;;;;;2.37;2.27;;;12.80;99.90;;;;;;5032539;28;20511;-78
2023/04/30 05:35:17;;;;;;;4.50;2.53;;;12.90;99.90;;;;;;5033835;28;20169;-79
2023/04/30 05:37:43;;;;;;;2.60;2.50;;;13.00;99.90;;;;;;5033278;28;20707;-81
2023/04/30 05:40:09;;;;;;;4.03;3.17;;;13.20;99.90;;;;;;5033476;28;20204;-79
2023/04/30 05:42:37;;;;;;;3.60;3.33;;;13.20;99.90;;;;;;5033362;28;20165;-79
2023/04/30 05:45:03;;;;;;;3.80;3.10;;;13.20;99.90;;;;;;5035001;28;20216;-80
2023/04/30 05:47:30;;;;;;;3.60;3.30;;;13.40;99.90;;;;;;5039000;28;20229;-81
2023/04/30 05:49:56;;;;;;;3.10;2.90;;;13.50;99.90;;;;;;5033301;28;20175;-79
2023/04/30 05:52:22;;;;;;;4.13;3.13;;;13.70;99.90;;;;;;5051263;28;20177;-79
2023/04/30 05:54:48;;;;;;;3.40;3.10;;;13.60;99.90;;;;;;5052265;28;20173;-79
2023/04/30 05:57:14;;;;;;;5.00;3.37;;;13.50;99.90;;;;;;5055876;28;20180;-80
2023/04/30 05:59:40;;;;;;;3.10;2.90;;;13.50;99.90;;;;;;5054578;28;20175;-78
2023/04/30 06:02:06;;;;;;;3.13;3.00;;;13.50;99.90;;;;;;5038553;28;20187;-78
2023/04/30 06:04:31;;;;;;;3.10;2.90;;;13.40;99.90;;;;;;5033417;28;20602;-80
2023/04/30 06:06:57;;;;;;;2.87;2.77;;;13.50;99.90;;;;;;5034207;28;20184;-78
2023/04/30 06:09:23;;;;;;;2.97;2.80;;;13.50;99.90;;;;;;5037251;28;20185;-78
2023/04/30 06:11:49;;;;;;;3.20;2.53;;;13.60;99.90;;;;;;5046351;28;20190;-79
2023/04/30 06:14:16;;;;;;;2.97;2.80;;;13.50;99.90;;;;;;5054147;28;20244;-80
2023/04/30 06:16:45;;;;;;;3.77;3.47;;;13.60;99.90;;;;;;5056319;28;20183;-79
2023/04/30 06:19:11;;;;;;;3.33;3.03;;;13.50;99.90;;;;;;5053764;28;20274;-78
2023/04/30 06:21:42;;;;;;;3.17;2.87;;;13.50;99.90;;;;;;5046765;28;20671;-80
2023/04/30 06:24:08;;;;;;;3.20;3.00;;;13.50;99.90;;;;;;5032500;28;20235;-80
2023/04/30 06:26:34;;;;;;;3.00;2.90;;;13.60;99.90;;;;;;5032959;28;20184;-78
2023/04/30 06:29:00;;;;;;;3.40;3.20;;;13.60;99.90;;;;;;5032814;28;20188;-80
2023/04/30 06:31:26;;;;;;;3.60;3.37;;;13.80;99.90;;;;;;5033798;28;20187;-81
2023/04/30 06:33:52;;;;;;;3.27;2.97;;;13.70;99.90;;;;;;5041268;28;20179;-80
2023/04/30 06:36:18;;;;;;;3.03;2.90;;;13.70;99.90;;;;;;5031925;28;20176;-79
2023/04/30 06:38:46;;;;;;;3.33;3.13;;;13.80;99.90;;;;;;5032394;28;20681;-79
2023/04/30 06:41:12;;;;;;;3.40;3.20;;;14.00;99.90;;;;;;5037846;28;20176;-78
2023/04/30 06:43:38;;;;;;;3.40;3.20;;;14.20;99.90;;;;;;5052773;28;20206;-79
2023/04/30 06:46:05;;;;;;;3.10;3.00;;;14.30;99.90;;;;;;5051904;28;20186;-80
2023/04/30 06:48:31;;;;;;;3.13;2.93;;;14.30;99.90;;;;;;5051425;28;20176;-78
2023/04/30 06:50:57;;;;;;;3.67;3.37;;;14.30;99.90;;;;;;5053647;28;20175;-80
2023/04/30 06:53:23;;;;;;;3.10;2.93;;;14.40;99.90;;;;;;5055107;28;20212;-77
2023/04/30 06:55:50;;;;;;;4.10;3.80;;;14.50;99.90;;;;;;5051273;28;20600;-78
2023/04/30 06:58:17;;;;;;;2.70;2.60;;;14.70;99.90;;;;;;5052652;28;20180;-79
2023/04/30 07:00:43;;;;;;;3.10;2.90;;;14.80;99.90;;;;;;5052097;28;20168;-80
2023/04/30 07:03:08;;;;;;;3.53;3.33;;;14.90;99.90;;;;;;5032192;28;20231;-76
2023/04/30 07:05:34;;;;;;;2.80;2.70;;;14.90;99.90;;;;;;5032736;28;20651;-78
2023/04/30 07:08:02;;;;;;;3.00;2.90;;;14.80;99.90;;;;;;5032328;28;20280;-79
2023/04/30 07:10:28;;;;;;;3.30;3.13;;;14.70;99.90;;;;;;5032542;28;20191;-78
2023/04/30 07:12:55;;;;;;;3.50;3.30;;;14.70;99.90;;;;;;5032284;28;20230;-79
2023/04/30 07:15:21;;;;;;;3.37;3.17;;;14.80;99.90;;;;;;5032664;28;20590;-79
2023/04/30 07:17:47;;;;;;;3.17;2.97;;;14.50;99.90;;;;;;5032283;28;20205;-79
2023/04/30 07:20:15;;;;;;;3.00;2.90;;;14.60;99.90;;;;;;5034524;28;20628;-79
2023/04/30 07:22:44;;;;;;;4.43;4.03;;;14.70;99.90;;;;;;5036210;28;20198;-77
2023/04/30 07:25:15;;;;;;;3.40;3.20;;;14.80;99.90;;;;;;5036336;28;20211;-78
2023/04/30 07:27:41;;;;;;;4.13;3.20;;;15.00;99.90;;;;;;5036365;28;20265;-79
2023/04/30 07:30:11;;;;;;;3.07;2.97;;;15.00;99.90;;;;;;5036966;28;20221;-79
2023/04/30 07:32:39;;;;;;;4.20;3.00;;;14.90;99.90;;;;;;5037559;28;20208;-81
2023/04/30 07:35:05;;;;;;;3.30;3.10;;;14.90;99.90;;;;;;5035182;28;20640;-77
2023/04/30 07:37:31;;;;;;;3.37;3.17;;;14.80;99.90;;;;;;5036219;28;20195;-79
2023/04/30 07:39:57;;;;;;;3.23;3.03;;;14.80;99.90;;;;;;5037297;28;20174;-77
2023/04/30 07:42:23;;;;;;;3.97;3.67;;;14.70;99.90;;;;;;5043335;28;20181;-78
2023/04/30 07:44:49;;;;;;;3.93;3.43;;;14.90;99.90;;;;;;5037395;28;20240;-79
2023/04/30 07:47:14;;;;;;;4.20;3.63;;;14.90;99.90;;;;;;5036119;28;20556;-78
2023/04/30 07:49:40;;;;;;;3.83;3.63;;;14.80;99.90;;;;;;5035525;28;20169;-80
2023/04/30 07:52:09;;;;;;;3.50;3.30;;;14.70;99.90;;;;;;5049162;28;20210;-80
2023/04/30 07:54:37;;;;;;;3.40;3.20;;;14.70;99.90;;;;;;5060930;28;20164;-78
2023/04/30 07:57:04;;;;;;;3.67;3.47;;;14.80;99.90;;;;;;5055787;28;20182;-78
2023/04/30 07:59:30;;;;;;;3.47;3.23;;;14.90;99.90;;;;;;5055977;28;20255;-80
2023/04/30 08:01:56;;;;;;;3.13;2.93;;;15.10;99.90;;;;;;5055576;28;20695;-78
2023/04/30 08:04:22;;;;;;;3.60;3.40;;;15.30;99.90;;;;;;5054134;28;20330;-78
2023/04/30 08:06:47;;;;;;;3.50;3.20;;;15.30;99.90;;;;;;5056020;28;20531;-78
2023/04/30 08:09:14;;;;;;;3.37;3.17;;;15.30;99.90;;;;;;5055309;28;20211;-79
2023/04/30 08:11:40;;;;;;;3.60;3.30;;;15.60;99.90;;;;;;5055933;28;20165;-78
2023/04/30 08:14:06;;;;;;;5.03;4.53;;;15.60;99.90;;;;;;5054337;28;20187;-79
2023/04/30 08:16:32;;;;;;;3.63;3.40;;;15.70;99.90;;;;;;5055069;28;20164;-76
2023/04/30 08:18:58;;;;;;;3.90;3.60;;;16.00;99.90;;;;;;5054731;28;20181;-78
2023/04/30 08:21:24;;;;;;;3.60;3.40;;;16.20;99.90;;;;;;5054974;28;20164;-76
2023/04/30 08:23:50;;;;;;;4.47;4.17;;;16.30;99.90;;;;;;5055196;28;20560;-78
2023/04/30 08:26:16;;;;;;;4.67;4.30;;;16.20;99.90;;;;;;5055197;28;20192;-80
2023/04/30 08:28:42;;;;;;;4.63;3.30;;;16.30;99.90;;;;;;5054637;28;20178;-78
2023/04/30 08:31:08;;;;;;;3.80;3.60;;;16.40;99.90;;;;;;5054130;28;20557;-77
2023/04/30 08:33:34;;;;;;;3.50;3.30;;;16.10;99.90;;;;;;5054778;28;20189;-78
2023/04/30 08:36:00;;;;;;;5.37;4.33;;;16.20;99.90;;;;;;5055246;28;20646;-78
2023/04/30 08:38:27;;;;;;;4.07;3.77;;;16.30;99.90;;;;;;5055001;28;20218;-78
2023/04/30 08:41:22;;;;;;;3.77;3.47;;;16.30;99.90;;;;;;5053529;28;20271;-78
2023/04/30 08:43:52;;;;;;;3.27;3.07;;;16.00;99.90;;;;;;5052528;28;20301;-77
2023/04/30 08:46:20;;;;;;;4.03;3.73;;;16.00;99.90;;;;;;5054752;28;20174;-79
2023/04/30 08:48:49;;;;;;;3.27;3.07;;;16.00;99.90;;;;;;5054642;28;20171;-80
2023/04/30 08:51:15;;;;;;;3.60;3.40;;;16.30;99.90;;;;;;5054945;28;20207;-79
2023/04/30 08:53:42;;;;;;;3.50;3.20;;;16.30;99.90;;;;;;5054568;28;20172;-79
2023/04/30 08:56:11;;;;;;;3.23;3.13;;;16.20;99.90;;;;;;5056324;28;20168;-79
2023/04/30 08:58:38;;;;;;;3.73;3.53;;;16.20;99.90;;;;;;5058470;28;20177;-81
2023/04/30 09:01:07;;;;;;;3.47;3.27;;;16.10;99.90;;;;;;5053469;28;20176;-80
2023/04/30 09:03:33;;;;;;;3.30;3.10;;;16.20;99.90;;;;;;5054097;28;20219;-81
2023/04/30 09:05:59;;;;;;;3.00;2.90;;;16.50;99.90;;;;;;5054111;28;20179;-79
2023/04/30 09:08:45;;;;;;;3.40;3.20;;;16.80;99.90;;;;;;5054441;28;20497;-79
2023/04/30 09:11:29;;;;;;;2.87;2.77;;;17.00;99.90;;;;;;5053142;28;20655;-78
2023/04/30 09:13:59;;;;;;;3.23;3.13;;;17.20;99.90;;;;;;5054343;28;20186;-78
2023/04/30 09:16:26;;;;;;;3.23;3.03;;;17.40;99.90;;;;;;5055901;28;20686;-80
2023/04/30 09:18:52;;;;;;;3.77;3.47;;;16.90;99.90;;;;;;5054754;28;20173;-78
2023/04/30 09:21:34;;;;;;;3.53;3.33;;;16.80;99.90;;;;;;5054857;28;20172;-79
2023/04/30 09:24:02;;;;;;;3.33;3.13;;;16.60;99.90;;;;;;5054225;28;20666;-78
2023/04/30 09:26:34;;;;;;;3.73;3.30;;;16.80;99.90;;;;;;5053997;28;20176;-78
2023/04/30 09:29:00;;;;;;;3.33;3.13;;;17.00;99.90;;;;;;5053811;28;20183;-77
2023/04/30 09:31:27;;;;;;;3.50;3.30;;;17.00;99.90;;;;;;5053048;28;20182;-79
2023/04/30 09:33:53;;;;;;;3.63;3.43;;;16.90;99.90;;;;;;5055404;28;20185;-78
2023/04/30 09:36:19;;;;;;;3.33;3.23;;;17.10;99.90;;;;;;5064589;28;20254;-78
2023/04/30 09:38:45;;;;;;;3.03;2.93;;;17.30;99.90;;;;;;5063073;28;20176;-79
2023/04/30 09:41:26;;;;;;;3.37;3.17;;;17.40;99.90;;;;;;5054314;28;20512;-81
2023/04/30 09:43:53;;;;;;;3.40;3.20;;;17.40;99.90;;;;;;5052576;28;20206;-78
2023/04/30 09:46:20;;;;;;;4.10;3.30;;;17.30;99.90;;;;;;5053738;28;20203;-79
2023/04/30 09:48:48;;;;;;;3.47;3.23;;;17.10;99.90;;;;;;5053859;28;20222;-79
2023/04/30 09:51:14;;;;;;;3.20;3.00;;;16.70;99.90;;;;;;5053876;28;20768;-79
2023/04/30 09:53:43;;;;;;;3.33;3.20;;;16.70;99.90;;;;;;5053507;28;20230;-76
2023/04/30 09:56:11;;;;;;;3.43;3.23;;;16.70;99.90;;;;;;5053876;28;20602;-76
2023/04/30 09:58:38;;;;;;;3.60;3.40;;;16.60;99.90;;;;;;5053119;28;20167;-76
2023/04/30 10:01:11;;;;;;;3.43;3.23;;;16.60;99.90;;;;;;5053413;28;20671;-77
2023/04/30 10:03:41;;;;;;;2.80;2.60;;;16.80;99.90;;;;;;5052942;28;20235;-79
2023/04/30 10:06:08;;;;;;;4.30;2.90;;;17.00;99.90;;;;;;5053122;28;20178;-78
2023/04/30 10:08:41;;;;;;;2.50;2.37;;;17.00;99.90;;;;;;5053388;28;20176;-78
2023/04/30 10:11:07;;;;;;;2.87;2.77;;;17.20;99.90;;;;;;5053536;28;20156;-80
2023/04/30 10:14:07;;;;;;;3.10;2.80;;;17.30;99.90;;;;;;5052241;28;20183;-76
2023/04/30 10:16:33;;;;;;;2.83;2.73;;;17.70;99.90;;;;;;5045606;28;20197;-79
2023/04/30 10:19:14;;;;;;;2.73;2.60;;;17.90;99.90;;;;;;5052989;28;20164;-78
2023/04/30 10:21:43;;;;;;;3.53;3.23;;;18.00;99.90;;;;;;5053201;28;20300;-78
2023/04/30 10:24:11;;;;;;;2.77;2.50;;;18.10;99.90;;;;;;5052910;28;20255;-77
2023/04/30 10:26:37;;;;;;;2.83;2.63;;;18.20;99.90;;;;;;5053129;28;20656;-76
2023/04/30 10:29:05;;;;;;;2.63;2.47;;;18.30;99.90;;;;;;5051644;28;20649;-77
2023/04/30 10:31:32;;;;;;;2.50;2.30;;;18.30;99.90;;;;;;5053413;28;20183;-78
2023/04/30 10:34:06;;;;;;;2.77;2.67;;;18.40;99.90;;;;;;5058322;28;20176;-79
2023/04/30 10:37:10;;;;;;;2.70;2.60;;;18.50;99.90;;;;;;5063802;28;20254;-80
2023/04/30 10:39:37;;;;;;;3.00;2.80;;;18.40;99.90;;;;;;5034329;28;20191;-78
2023/04/30 10:42:05;;;;;;;2.70;2.60;;;18.60;99.90;;;;;;5055112;28;20172;-79
2023/04/30 10:44:33;;;;;;;2.57;2.47;;;18.50;99.90;;;;;;5052836;28;20219;-79
2023/04/30 10:47:01;;;;;;;2.70;2.50;;;18.30;99.90;;;;;;5052441;28;20200;-78
2023/04/30 10:49:27;;;;;;;2.70;2.60;;;18.40;99.60;;;;;;5053107;28;20222;-79
2023/04/30 10:51:53;;;;;;;2.53;2.43;;;18.40;99.50;;;;;;5054059;28;20175;-80
2023/04/30 10:54:27;;;;;;;3.00;2.80;;;18.10;98.50;;;;;;5052915;28;20517;-79
2023/04/30 10:56:55;;;;;;;2.57;2.47;;;17.90;99.10;;;;;;5052782;28;20190;-78
2023/04/30 10:59:23;;;;;;;2.83;2.63;;;17.80;99.00;;;;;;5052367;28;20196;-78
2023/04/30 11:02:00;;;;;;;2.60;2.50;;;17.70;99.40;;;;;;5052300;28;20631;-78
2023/04/30 11:04:26;;;;;;;2.90;2.80;;;18.80;99.90;;;;;;5052254;28;20231;-79
2023/04/30 11:07:08;;;;;;;2.57;2.47;;;17.70;98.80;;;;;;5052159;28;20206;-80
2023/04/30 11:09:37;;;;;;;3.10;3.00;;;17.70;98.50;;;;;;5052347;28;20237;-78
2023/04/30 11:12:08;;;;;;;2.80;2.60;;;17.70;98.10;;;;;;5052185;28;20225;-80
2023/04/30 11:14:38;;;;;;;2.70;2.50;;;17.50;98.30;;;;;;5052076;28;20233;-79
2023/04/30 11:17:04;;;;;;;2.73;2.63;;;17.50;99.00;;;;;;5051643;28;20187;-78
2023/04/30 11:19:33;;;;;;;3.10;2.60;;;17.60;99.20;;;;;;5052278;28;20254;-79
2023/04/30 11:22:02;;;;;;;2.93;2.83;;;17.70;99.20;;;;;;5052391;28;20183;-79
2023/04/30 11:24:49;;;;;;;4.33;3.00;;;17.80;98.30;;;;;;5052524;28;20214;-79
2023/04/30 11:27:20;;;;;;;3.27;2.70;;;17.90;98.10;;;;;;5052168;28;20199;-77
2023/04/30 11:29:47;;;;;;;3.50;3.20;;;17.90;98.40;;;;;;5057781;28;20180;-79
2023/04/30 11:32:13;;;;;;;3.40;3.10;;;18.00;98.40;;;;;;5063317;28;20535;-78
2023/04/30 11:34:41;;;;;;;3.63;3.00;;;18.10;98.00;;;;;;5048346;28;20181;-78
2023/04/30 11:37:11;;;;;;;4.10;2.60;;;18.00;98.80;;;;;;5033137;28;20964;-79
2023/04/30 11:39:38;;;;;;;3.00;2.80;;;18.10;98.50;;;;;;5032318;28;20176;-78
2023/04/30 11:42:06;;;;;;;2.63;2.53;;;17.90;99.00;;;;;;5032482;28;20529;-79
2023/04/30 11:44:31;;;;;;;3.20;2.90;;;17.80;99.00;;;;;;5032332;28;20213;-79
2023/04/30 11:46:57;;;;;;;5.87;3.90;;;17.90;99.20;;;;;;5031647;28;20172;-81
2023/04/30 11:49:23;;;;;;;3.30;2.97;;;17.90;97.90;;;;;;5032172;28;20218;-80
2023/04/30 11:51:49;;;;;;;2.77;2.57;;;18.10;97.80;;;;;;5032352;28;20187;-80
2023/04/30 11:54:15;;;;;;;3.60;3.20;;;18.20;97.30;;;;;;5032642;28;20195;-80
2023/04/30 11:56:49;;;;;;;2.80;2.70;;;18.40;97.70;;;;;;5036508;28;20169;-79
2023/04/30 11:59:16;;;;;;;2.67;2.57;;;18.30;96.50;;;;;;5032334;28;20204;-79
2023/04/30 12:01:42;;;;;;;2.97;2.77;;;18.40;97.00;;;;;;5032169;28;20177;-79
2023/04/30 12:04:08;;;;;;;4.07;3.67;;;18.50;97.10;;;;;;5030465;28;20239;-79
2023/04/30 12:06:35;;;;;;;2.63;2.53;;;18.70;97.10;;;;;;5032188;28;20264;-78
2023/04/30 12:09:05;;;;;;;2.40;2.30;;;18.80;96.50;;;;;;5035611;28;20625;-78
2023/04/30 12:11:32;;;;;;;3.30;3.10;;;19.00;95.50;;;;;;5035757;28;20173;-79
2023/04/30 12:14:06;;;;;;;3.13;2.93;;;19.10;95.30;;;;;;5037025;28;20204;-78
2023/04/30 12:16:49;;;;;;;4.63;4.23;;;19.30;95.10;;;;;;5036587;28;20173;-77
2023/04/30 12:19:20;;;;;;;3.07;2.87;;;19.50;95.00;;;;;;5036861;28;20165;-78
2023/04/30 12:21:48;;;;;;;2.70;2.53;;;19.60;94.90;;;;;;5037070;28;20203;-78
2023/04/30 12:24:18;;;;;;;2.80;2.50;;;19.60;94.70;;;;;;5037486;28;20246;-79
2023/04/30 12:26:44;;;;;;;2.97;2.80;;;19.50;95.20;;;;;;5036587;28;20168;-79
2023/04/30 12:29:17;;;;;;;2.97;2.77;;;19.20;94.30;;;;;;5036591;28;20196;-78
2023/04/30 12:31:44;;;;;;;2.70;2.60;;;18.80;94.30;;;;;;5037009;28;20199;-80
2023/04/30 12:34:12;;;;;;;3.03;2.53;;;18.70;95.40;;;;;;5036963;28;20636;-80
2023/04/30 12:36:42;;;;;;;2.87;2.67;;;18.50;94.80;;;;;;5033994;28;20218;-79
2023/04/30 12:39:10;;;;;;;2.67;2.57;;;18.30;95.00;;;;;;5034333;28;20184;-78
2023/04/30 12:41:42;;;;;;;3.07;2.87;;;18.10;96.10;;;;;;5035750;28;20222;-78
2023/04/30 12:44:15;;;;;;;3.07;2.80;;;18.20;95.00;;;;;;5033952;28;20751;-79
2023/04/30 12:46:42;;;;;;;2.80;2.70;;;18.20;96.00;;;;;;5034780;28;20188;-79
2023/04/30 12:49:08;;;;;;;2.40;2.30;;;18.00;95.80;;;;;;5037299;28;20180;-77
2023/04/30 12:51:39;;;;;;;2.60;2.50;;;17.90;93.90;;;;;;5035325;28;20519;-78
2023/04/30 12:54:05;;;;;;;2.80;2.60;;;17.80;93.20;;;;;;5034918;28;20164;-79